L'image de la webcam se met à jour toutes les 30s.
La jauge météo se met à jour toutes les 10s d'après les données envoyées par la station météo du club.
Les graphiques se mettent à jour toutes les 5min et ne s'affichent que si la station est en ligne
Surfaces en herbe praticables.
MAJ le 13/09/2021 14h00 DDE
METAR de LFRD (Source NOAA)
LFRD 272300Z AUTO 20006KT CAVOK 10/08 Q1023 NOSIG

TAF de LFRD (Source NOAA)
TAF LFRD 271700Z 2718/2818 23008KT 9999 SCT030 BECMG 2809/2812 20015KT PROB30 TEMPO 2810/2815 5000 SHRA BKN015TCU TEMPO 2812/2818 21015G25KT
Ayez la webcam en fond d'écran de votre téléphone ou de votre tablette Android avec l'appli du club.